This is the latest recevied weather packets stored in our database for station/object SP2ARQ-13. If no packets are shown the sender has not sent any weather packets the latest 10 day(s).
| Time | Temp. | Humidity | Pressure | Rain* | Wind** | Luminosity | Snow |
|---|---|---|---|---|---|---|---|
| 1777612368 | 8.33° C | 61% | 1026.5 hPa | - | - | - | - |
| 1777611468 | 7.78° C | 62% | 1026.5 hPa | - | - | - | - |
| 1777610568 | 7.22° C | 64% | 1026.6 hPa | - | - | - | - |
| 1777609668 | 6.67° C | 63% | 1026.4 hPa | - | - | - | - |
| 1777608767 | 6.11° C | 64% | 1026.4 hPa | - | - | - | - |
| 1777607867 | 6.11° C | 64% | 1026.4 hPa | - | - | - | - |
| 1777606967 | 5.56° C | 64% | 1026.4 hPa | - | - | - | - |
| 1777606067 | 5.56° C | 64% | 1026.4 hPa | - | - | - | - |
| 1777605167 | 5.56° C | 64% | 1026.4 hPa | - | - | - | - |
| 1777604267 | 6.11° C | 64% | 1026.5 hPa | - | - | - | - |
| 1777603366 | 6.11° C | 63% | 1026.5 hPa | - | - | - | - |
| 1777602466 | 6.11° C | 62% | 1026.5 hPa | - | - | - | - |
| 1777601566 | 6.67° C | 63% | 1026.3 hPa | - | - | - | - |
| 1777583563 | 10° C | 62% | 1026.4 hPa | - | - | - | - |
| 1777579062 | 12.22° C | 53% | 1026.7 hPa | - | - | - | - |
| 1777577262 | 13.33° C | 51% | 1026.7 hPa | - | - | - | - |
| 1777570061 | 15.56° C | 45% | 1026.6 hPa | - | - | - | - |
| 1777567361 | 16.11° C | 44% | 1026.7 hPa | - | - | - | - |
| 1777557457 | 21.11° C | 35% | 1027.4 hPa | - | - | - | - |
| 1777547555 | 18.33° C | 33% | 1029.3 hPa | - | - | - | - |
| 1777546655 | 19.44° C | 32% | 1029.5 hPa | - | - | - | - |
| 1777544854 | 20.56° C | 31% | 1029.5 hPa | - | - | - | - |
| 1777543954 | 19.44° C | 32% | 1029.7 hPa | - | - | - | - |
| 1777543054 | 17.78° C | 34% | 1029.9 hPa | - | - | - | - |
| 1777541254 | 14.44° C | 36% | 1030.1 hPa | - | - | - | - |
* Rain since midnight (hover to see other rain measurements)
** Current wind speed in m/s (hover to see current wind gust speed)